sensor_id;sensor_type;location;lat;lon;timestamp;temperature;humidity
2389;DHT22;1205;47.984;7.668;2023-07-20T00:01:15;22.10;87.80
2389;DHT22;1205;47.984;7.668;2023-07-20T00:03:41;22.10;87.60
2389;DHT22;1205;47.984;7.668;2023-07-20T00:06:07;22.10;87.80
2389;DHT22;1205;47.984;7.668;2023-07-20T00:08:32;22.10;87.80
2389;DHT22;1205;47.984;7.668;2023-07-20T00:10:58;22.10;87.60
2389;DHT22;1205;47.984;7.668;2023-07-20T00:13:24;22.00;87.40
2389;DHT22;1205;47.984;7.668;2023-07-20T00:15:51;22.00;87.50
2389;DHT22;1205;47.984;7.668;2023-07-20T00:18:17;22.00;87.80
2389;DHT22;1205;47.984;7.668;2023-07-20T00:20:43;22.00;87.30
2389;DHT22;1205;47.984;7.668;2023-07-20T00:23:08;22.00;87.60
2389;DHT22;1205;47.984;7.668;2023-07-20T00:25:34;22.00;87.20
2389;DHT22;1205;47.984;7.668;2023-07-20T00:28:01;21.80;87.30
2389;DHT22;1205;47.984;7.668;2023-07-20T00:30:27;21.90;87.40
2389;DHT22;1205;47.984;7.668;2023-07-20T00:32:52;21.90;87.40
2389;DHT22;1205;47.984;7.668;2023-07-20T00:35:18;21.90;87.60
2389;DHT22;1205;47.984;7.668;2023-07-20T00:37:43;21.90;87.40
2389;DHT22;1205;47.984;7.668;2023-07-20T00:40:09;21.90;87.50
2389;DHT22;1205;47.984;7.668;2023-07-20T00:42:35;21.90;87.60
2389;DHT22;1205;47.984;7.668;2023-07-20T00:45:00;21.90;87.70
2389;DHT22;1205;47.984;7.668;2023-07-20T00:47:26;21.90;87.40
2389;DHT22;1205;47.984;7.668;2023-07-20T00:49:52;21.90;87.10
2389;DHT22;1205;47.984;7.668;2023-07-20T00:52:19;21.90;87.40
2389;DHT22;1205;47.984;7.668;2023-07-20T00:54:45;21.90;87.20
2389;DHT22;1205;47.984;7.668;2023-07-20T00:57:14;21.90;87.10
2389;DHT22;1205;47.984;7.668;2023-07-20T00:59:40;21.90;87.10
2389;DHT22;1205;47.984;7.668;2023-07-20T01:02:06;21.90;87.10
2389;DHT22;1205;47.984;7.668;2023-07-20T01:04:32;21.90;87.10
2389;DHT22;1205;47.984;7.668;2023-07-20T01:10:09;21.90;87.30
2389;DHT22;1205;47.984;7.668;2023-07-20T01:12:43;21.80;87.70
2389;DHT22;1205;47.984;7.668;2023-07-20T01:15:10;21.80;87.50
2389;DHT22;1205;47.984;7.668;2023-07-20T01:17:37;21.80;87.30
2389;DHT22;1205;47.984;7.668;2023-07-20T01:20:03;21.70;87.60
2389;DHT22;1205;47.984;7.668;2023-07-20T01:31:30;21.70;87.50
2389;DHT22;1205;47.984;7.668;2023-07-20T01:33:58;21.70;87.50
2389;DHT22;1205;47.984;7.668;2023-07-20T01:36:28;21.70;87.80
2389;DHT22;1205;47.984;7.668;2023-07-20T01:38:54;21.70;87.70
2389;DHT22;1205;47.984;7.668;2023-07-20T01:41:21;21.60;87.90
2389;DHT22;1205;47.984;7.668;2023-07-20T01:43:46;21.60;88.10
2389;DHT22;1205;47.984;7.668;2023-07-20T01:46:12;21.60;87.70
2389;DHT22;1205;47.984;7.668;2023-07-20T01:48:37;21.60;87.80
2389;DHT22;1205;47.984;7.668;2023-07-20T01:51:03;21.60;88.00
2389;DHT22;1205;47.984;7.668;2023-07-20T01:53:29;21.60;87.90
2389;DHT22;1205;47.984;7.668;2023-07-20T01:55:54;21.60;88.30
2389;DHT22;1205;47.984;7.668;2023-07-20T01:58:20;21.60;87.90
2389;DHT22;1205;47.984;7.668;2023-07-20T02:00:46;21.50;87.90
2389;DHT22;1205;47.984;7.668;2023-07-20T02:03:11;21.50;88.00
2389;DHT22;1205;47.984;7.668;2023-07-20T02:05:37;21.50;88.20
2389;DHT22;1205;47.984;7.668;2023-07-20T02:08:03;21.50;88.10
2389;DHT22;1205;47.984;7.668;2023-07-20T02:10:29;21.50;88.30
2389;DHT22;1205;47.984;7.668;2023-07-20T02:12:54;21.50;87.70
2389;DHT22;1205;47.984;7.668;2023-07-20T02:15:20;21.50;88.10
2389;DHT22;1205;47.984;7.668;2023-07-20T02:17:46;21.50;87.90
2389;DHT22;1205;47.984;7.668;2023-07-20T02:20:12;21.50;87.70
2389;DHT22;1205;47.984;7.668;2023-07-20T02:22:38;21.50;88.10
2389;DHT22;1205;47.984;7.668;2023-07-20T02:25:07;21.50;88.00
2389;DHT22;1205;47.984;7.668;2023-07-20T02:27:34;21.60;88.00
2389;DHT22;1205;47.984;7.668;2023-07-20T02:30:00;21.60;88.40
2389;DHT22;1205;47.984;7.668;2023-07-20T02:32:26;21.60;88.30
2389;DHT22;1205;47.984;7.668;2023-07-20T02:34:51;21.60;88.30
2389;DHT22;1205;47.984;7.668;2023-07-20T02:37:17;21.60;88.20
2389;DHT22;1205;47.984;7.668;2023-07-20T02:39:43;21.60;88.50
2389;DHT22;1205;47.984;7.668;2023-07-20T02:42:08;21.50;90.10
2389;DHT22;1205;47.984;7.668;2023-07-20T02:44:34;21.40;90.30
2389;DHT22;1205;47.984;7.668;2023-07-20T02:47:00;21.40;90.60
2389;DHT22;1205;47.984;7.668;2023-07-20T02:49:26;21.30;90.90
2389;DHT22;1205;47.984;7.668;2023-07-20T02:51:52;21.20;90.90
2389;DHT22;1205;47.984;7.668;2023-07-20T02:54:18;21.20;91.20
2389;DHT22;1205;47.984;7.668;2023-07-20T02:56:43;21.20;91.60
2389;DHT22;1205;47.984;7.668;2023-07-20T02:59:09;21.10;91.50
2389;DHT22;1205;47.984;7.668;2023-07-20T03:01:35;21.10;91.70
2389;DHT22;1205;47.984;7.668;2023-07-20T03:04:00;21.00;91.50
2389;DHT22;1205;47.984;7.668;2023-07-20T03:06:26;21.00;92.00
2389;DHT22;1205;47.984;7.668;2023-07-20T03:08:51;20.90;92.00
2389;DHT22;1205;47.984;7.668;2023-07-20T03:11:20;20.90;92.00
2389;DHT22;1205;47.984;7.668;2023-07-20T03:13:47;20.90;92.10
2389;DHT22;1205;47.984;7.668;2023-07-20T03:16:14;20.80;92.10
2389;DHT22;1205;47.984;7.668;2023-07-20T03:18:41;20.70;92.30
2389;DHT22;1205;47.984;7.668;2023-07-20T03:21:07;20.80;92.30
2389;DHT22;1205;47.984;7.668;2023-07-20T03:23:33;20.70;91.80
2389;DHT22;1205;47.984;7.668;2023-07-20T03:25:59;20.70;92.80
2389;DHT22;1205;47.984;7.668;2023-07-20T03:28:25;20.70;92.60
2389;DHT22;1205;47.984;7.668;2023-07-20T03:30:55;20.70;92.60
2389;DHT22;1205;47.984;7.668;2023-07-20T03:33:26;20.60;92.80
2389;DHT22;1205;47.984;7.668;2023-07-20T03:35:53;20.70;92.80
2389;DHT22;1205;47.984;7.668;2023-07-20T03:38:19;20.60;92.80
2389;DHT22;1205;47.984;7.668;2023-07-20T03:40:56;20.60;93.20
2389;DHT22;1205;47.984;7.668;2023-07-20T03:43:23;20.50;93.50
2389;DHT22;1205;47.984;7.668;2023-07-20T03:45:49;20.60;94.20
2389;DHT22;1205;47.984;7.668;2023-07-20T03:48:16;20.50;94.40
2389;DHT22;1205;47.984;7.668;2023-07-20T03:50:45;20.50;94.20
2389;DHT22;1205;47.984;7.668;2023-07-20T03:53:11;20.40;94.10
2389;DHT22;1205;47.984;7.668;2023-07-20T03:55:37;20.40;94.50
2389;DHT22;1205;47.984;7.668;2023-07-20T03:58:02;20.40;94.60
2389;DHT22;1205;47.984;7.668;2023-07-20T04:00:28;20.30;94.10
2389;DHT22;1205;47.984;7.668;2023-07-20T04:02:54;20.30;94.60
2389;DHT22;1205;47.984;7.668;2023-07-20T04:05:20;20.30;94.60
2389;DHT22;1205;47.984;7.668;2023-07-20T04:07:45;20.30;94.90
2389;DHT22;1205;47.984;7.668;2023-07-20T04:10:12;20.30;94.80
2389;DHT22;1205;47.984;7.668;2023-07-20T04:12:38;20.30;94.80
2389;DHT22;1205;47.984;7.668;2023-07-20T04:15:04;20.30;95.00
2389;DHT22;1205;47.984;7.668;2023-07-20T04:17:29;20.30;94.90
2389;DHT22;1205;47.984;7.668;2023-07-20T04:19:55;20.30;95.30
2389;DHT22;1205;47.984;7.668;2023-07-20T04:22:20;20.20;95.90
2389;DHT22;1205;47.984;7.668;2023-07-20T04:24:47;20.20;96.30
2389;DHT22;1205;47.984;7.668;2023-07-20T04:27:12;20.10;96.40
2389;DHT22;1205;47.984;7.668;2023-07-20T04:29:38;20.10;95.90
2389;DHT22;1205;47.984;7.668;2023-07-20T04:32:03;20.00;96.00
2389;DHT22;1205;47.984;7.668;2023-07-20T04:34:29;20.00;96.40
2389;DHT22;1205;47.984;7.668;2023-07-20T04:36:55;20.20;96.40
2389;DHT22;1205;47.984;7.668;2023-07-20T04:39:20;20.20;96.00
2389;DHT22;1205;47.984;7.668;2023-07-20T04:41:46;20.40;95.70
2389;DHT22;1205;47.984;7.668;2023-07-20T04:44:13;20.60;95.90
2389;DHT22;1205;47.984;7.668;2023-07-20T04:46:39;20.70;95.50
2389;DHT22;1205;47.984;7.668;2023-07-20T04:49:05;20.60;95.20
2389;DHT22;1205;47.984;7.668;2023-07-20T04:51:31;20.50;95.60
2389;DHT22;1205;47.984;7.668;2023-07-20T04:53:57;20.40;95.70
2389;DHT22;1205;47.984;7.668;2023-07-20T04:56:23;20.30;95.90
2389;DHT22;1205;47.984;7.668;2023-07-20T04:58:49;20.40;95.90
2389;DHT22;1205;47.984;7.668;2023-07-20T05:01:14;20.50;95.90
2389;DHT22;1205;47.984;7.668;2023-07-20T05:03:40;20.40;95.70
2389;DHT22;1205;47.984;7.668;2023-07-20T05:06:05;20.60;95.70
2389;DHT22;1205;47.984;7.668;2023-07-20T05:08:31;20.60;95.60
2389;DHT22;1205;47.984;7.668;2023-07-20T05:10:56;20.70;95.40
2389;DHT22;1205;47.984;7.668;2023-07-20T05:13:23;20.90;95.60
2389;DHT22;1205;47.984;7.668;2023-07-20T05:15:51;21.30;95.40
2389;DHT22;1205;47.984;7.668;2023-07-20T05:18:18;21.40;94.40
2389;DHT22;1205;47.984;7.668;2023-07-20T05:20:46;21.30;94.60
2389;DHT22;1205;47.984;7.668;2023-07-20T05:23:12;21.70;94.50
2389;DHT22;1205;47.984;7.668;2023-07-20T05:25:37;21.60;94.50
2389;DHT22;1205;47.984;7.668;2023-07-20T05:28:03;21.60;94.60
2389;DHT22;1205;47.984;7.668;2023-07-20T05:30:29;21.40;95.00
2389;DHT22;1205;47.984;7.668;2023-07-20T05:32:54;21.60;95.20
2389;DHT22;1205;47.984;7.668;2023-07-20T05:35:20;22.00;94.80
2389;DHT22;1205;47.984;7.668;2023-07-20T05:37:46;22.10;94.10
2389;DHT22;1205;47.984;7.668;2023-07-20T05:40:12;22.10;94.20
2389;DHT22;1205;47.984;7.668;2023-07-20T05:42:38;21.90;94.20
2389;DHT22;1205;47.984;7.668;2023-07-20T05:45:05;22.10;94.50
2389;DHT22;1205;47.984;7.668;2023-07-20T05:47:30;22.20;93.80
2389;DHT22;1205;47.984;7.668;2023-07-20T05:49:57;22.10;93.80
2389;DHT22;1205;47.984;7.668;2023-07-20T05:52:23;22.20;94.00
2389;DHT22;1205;47.984;7.668;2023-07-20T05:54:48;22.20;93.70
2389;DHT22;1205;47.984;7.668;2023-07-20T05:57:14;22.10;93.80
2389;DHT22;1205;47.984;7.668;2023-07-20T05:59:39;22.20;93.90
2389;DHT22;1205;47.984;7.668;2023-07-20T06:02:09;22.20;93.80
2389;DHT22;1205;47.984;7.668;2023-07-20T06:04:35;22.30;93.60
2389;DHT22;1205;47.984;7.668;2023-07-20T06:07:00;22.60;93.20
2389;DHT22;1205;47.984;7.668;2023-07-20T06:09:26;22.60;92.90
2389;DHT22;1205;47.984;7.668;2023-07-20T06:11:53;22.90;92.60
2389;DHT22;1205;47.984;7.668;2023-07-20T06:14:18;23.20;92.70
2389;DHT22;1205;47.984;7.668;2023-07-20T06:16:44;23.20;92.00
2389;DHT22;1205;47.984;7.668;2023-07-20T06:19:09;23.10;91.70
2389;DHT22;1205;47.984;7.668;2023-07-20T06:21:37;23.10;92.40
2389;DHT22;1205;47.984;7.668;2023-07-20T06:24:03;22.80;93.00
2389;DHT22;1205;47.984;7.668;2023-07-20T06:26:29;23.00;93.50
2389;DHT22;1205;47.984;7.668;2023-07-20T06:28:56;23.20;92.70
2389;DHT22;1205;47.984;7.668;2023-07-20T06:31:21;23.40;92.60
2389;DHT22;1205;47.984;7.668;2023-07-20T06:33:47;23.50;92.00
2389;DHT22;1205;47.984;7.668;2023-07-20T06:36:12;23.90;91.50
2389;DHT22;1205;47.984;7.668;2023-07-20T06:38:38;23.80;90.90
2389;DHT22;1205;47.984;7.668;2023-07-20T06:41:04;24.20;90.80
2389;DHT22;1205;47.984;7.668;2023-07-20T06:43:29;24.70;90.60
2389;DHT22;1205;47.984;7.668;2023-07-20T06:45:55;25.00;89.30
2389;DHT22;1205;47.984;7.668;2023-07-20T06:48:21;25.00;88.60
2389;DHT22;1205;47.984;7.668;2023-07-20T06:50:47;24.90;87.80
2389;DHT22;1205;47.984;7.668;2023-07-20T06:53:13;24.90;87.50
2389;DHT22;1205;47.984;7.668;2023-07-20T06:55:38;25.00;87.70
2389;DHT22;1205;47.984;7.668;2023-07-20T06:58:05;24.90;86.80
2389;DHT22;1205;47.984;7.668;2023-07-20T07:00:30;25.00;87.00
2389;DHT22;1205;47.984;7.668;2023-07-20T07:02:56;25.20;86.80
2389;DHT22;1205;47.984;7.668;2023-07-20T07:05:21;25.20;86.20
2389;DHT22;1205;47.984;7.668;2023-07-20T07:07:47;25.00;85.30
2389;DHT22;1205;47.984;7.668;2023-07-20T07:10:13;24.70;85.70
2389;DHT22;1205;47.984;7.668;2023-07-20T07:12:39;24.80;86.40
2389;DHT22;1205;47.984;7.668;2023-07-20T07:15:05;24.80;86.70
2389;DHT22;1205;47.984;7.668;2023-07-20T07:17:32;25.00;86.80
2389;DHT22;1205;47.984;7.668;2023-07-20T07:19:58;25.40;86.60
2389;DHT22;1205;47.984;7.668;2023-07-20T07:22:24;25.90;85.70
2389;DHT22;1205;47.984;7.668;2023-07-20T07:24:50;26.50;85.00
2389;DHT22;1205;47.984;7.668;2023-07-20T07:27:16;27.00;83.70
2389;DHT22;1205;47.984;7.668;2023-07-20T07:29:42;27.50;80.80
2389;DHT22;1205;47.984;7.668;2023-07-20T07:32:10;27.50;80.10
2389;DHT22;1205;47.984;7.668;2023-07-20T07:34:36;27.30;78.00
2389;DHT22;1205;47.984;7.668;2023-07-20T07:37:03;27.40;77.70
2389;DHT22;1205;47.984;7.668;2023-07-20T07:39:28;27.80;78.20
2389;DHT22;1205;47.984;7.668;2023-07-20T07:41:55;28.30;77.10
2389;DHT22;1205;47.984;7.668;2023-07-20T07:44:21;28.30;76.40
2389;DHT22;1205;47.984;7.668;2023-07-20T07:46:47;28.90;75.10
2389;DHT22;1205;47.984;7.668;2023-07-20T07:49:12;29.10;74.30
2389;DHT22;1205;47.984;7.668;2023-07-20T07:51:38;29.40;73.50
2389;DHT22;1205;47.984;7.668;2023-07-20T07:54:04;29.30;73.50
2389;DHT22;1205;47.984;7.668;2023-07-20T07:56:29;29.40;74.20
2389;DHT22;1205;47.984;7.668;2023-07-20T07:58:55;29.30;74.20
2389;DHT22;1205;47.984;7.668;2023-07-20T08:01:21;29.30;73.40
2389;DHT22;1205;47.984;7.668;2023-07-20T08:03:47;29.10;72.00
2389;DHT22;1205;47.984;7.668;2023-07-20T08:06:15;29.20;74.30
2389;DHT22;1205;47.984;7.668;2023-07-20T08:08:41;29.00;72.40
2389;DHT22;1205;47.984;7.668;2023-07-20T08:11:08;29.40;73.50
2389;DHT22;1205;47.984;7.668;2023-07-20T08:13:34;28.80;72.40
2389;DHT22;1205;47.984;7.668;2023-07-20T08:15:59;28.30;74.00
2389;DHT22;1205;47.984;7.668;2023-07-20T08:18:25;28.20;74.50
2389;DHT22;1205;47.984;7.668;2023-07-20T08:20:50;28.40;75.30
2389;DHT22;1205;47.984;7.668;2023-07-20T08:23:16;28.60;74.40
2389;DHT22;1205;47.984;7.668;2023-07-20T08:25:42;29.20;72.80
2389;DHT22;1205;47.984;7.668;2023-07-20T08:28:11;29.70;73.60
2389;DHT22;1205;47.984;7.668;2023-07-20T08:30:44;29.80;72.40
2389;DHT22;1205;47.984;7.668;2023-07-20T08:33:13;30.00;72.30
2389;DHT22;1205;47.984;7.668;2023-07-20T08:35:39;29.90;71.50
2389;DHT22;1205;47.984;7.668;2023-07-20T08:38:05;30.30;71.20
2389;DHT22;1205;47.984;7.668;2023-07-20T08:40:32;29.30;71.50
2389;DHT22;1205;47.984;7.668;2023-07-20T08:42:58;29.40;71.50
2389;DHT22;1205;47.984;7.668;2023-07-20T08:45:27;29.70;72.60
2389;DHT22;1205;47.984;7.668;2023-07-20T08:47:55;29.10;71.70
2389;DHT22;1205;47.984;7.668;2023-07-20T08:50:21;29.00;72.20
2389;DHT22;1205;47.984;7.668;2023-07-20T08:52:48;29.20;71.90
2389;DHT22;1205;47.984;7.668;2023-07-20T08:55:15;29.50;73.40
2389;DHT22;1205;47.984;7.668;2023-07-20T08:57:41;29.90;72.60
2389;DHT22;1205;47.984;7.668;2023-07-20T09:00:09;29.50;70.60
2389;DHT22;1205;47.984;7.668;2023-07-20T09:02:39;29.10;71.10
2389;DHT22;1205;47.984;7.668;2023-07-20T09:05:08;29.10;70.20
2389;DHT22;1205;47.984;7.668;2023-07-20T09:07:35;28.90;69.20
2389;DHT22;1205;47.984;7.668;2023-07-20T09:10:02;28.40;69.30
2389;DHT22;1205;47.984;7.668;2023-07-20T09:12:40;28.40;70.70
2389;DHT22;1205;47.984;7.668;2023-07-20T09:15:07;28.40;71.70
2389;DHT22;1205;47.984;7.668;2023-07-20T09:17:33;28.50;72.50
2389;DHT22;1205;47.984;7.668;2023-07-20T09:20:05;28.40;71.00
2389;DHT22;1205;47.984;7.668;2023-07-20T09:22:37;27.70;71.20
2389;DHT22;1205;47.984;7.668;2023-07-20T09:25:08;27.70;71.60
2389;DHT22;1205;47.984;7.668;2023-07-20T09:27:43;27.70;73.20
2389;DHT22;1205;47.984;7.668;2023-07-20T09:30:10;28.20;74.60
2389;DHT22;1205;47.984;7.668;2023-07-20T09:32:43;28.50;74.10
2389;DHT22;1205;47.984;7.668;2023-07-20T09:35:16;28.50;72.80
2389;DHT22;1205;47.984;7.668;2023-07-20T09:38:00;28.70;72.50
2389;DHT22;1205;47.984;7.668;2023-07-20T09:40:27;28.60;71.10
2389;DHT22;1205;47.984;7.668;2023-07-20T09:42:54;28.00;72.00
2389;DHT22;1205;47.984;7.668;2023-07-20T09:45:49;28.00;72.10
2389;DHT22;1205;47.984;7.668;2023-07-20T09:48:14;28.20;72.80
2389;DHT22;1205;47.984;7.668;2023-07-20T09:50:50;27.90;73.50
2389;DHT22;1205;47.984;7.668;2023-07-20T09:53:20;27.90;73.70
2389;DHT22;1205;47.984;7.668;2023-07-20T09:55:47;27.60;73.80
2389;DHT22;1205;47.984;7.668;2023-07-20T09:58:16;27.60;74.10
2389;DHT22;1205;47.984;7.668;2023-07-20T10:00:42;27.30;73.80
2389;DHT22;1205;47.984;7.668;2023-07-20T10:03:14;27.30;74.10
2389;DHT22;1205;47.984;7.668;2023-07-20T10:05:43;27.50;75.30
2389;DHT22;1205;47.984;7.668;2023-07-20T10:08:12;27.50;72.60
2389;DHT22;1205;47.984;7.668;2023-07-20T10:10:41;27.20;74.70
2389;DHT22;1205;47.984;7.668;2023-07-20T10:13:11;27.40;73.80
2389;DHT22;1205;47.984;7.668;2023-07-20T10:15:46;27.40;74.50
2389;DHT22;1205;47.984;7.668;2023-07-20T10:18:17;27.30;73.70
2389;DHT22;1205;47.984;7.668;2023-07-20T10:20:47;27.40;74.70
2389;DHT22;1205;47.984;7.668;2023-07-20T10:23:13;27.50;74.20
2389;DHT22;1205;47.984;7.668;2023-07-20T10:25:40;27.10;74.00
2389;DHT22;1205;47.984;7.668;2023-07-20T10:28:08;27.00;73.60
2389;DHT22;1205;47.984;7.668;2023-07-20T10:30:35;26.80;73.50
2389;DHT22;1205;47.984;7.668;2023-07-20T10:33:05;26.80;73.90
2389;DHT22;1205;47.984;7.668;2023-07-20T10:35:50;26.50;74.30
2389;DHT22;1205;47.984;7.668;2023-07-20T10:38:15;26.00;75.30
2389;DHT22;1205;47.984;7.668;2023-07-20T10:40:41;26.40;75.20
2389;DHT22;1205;47.984;7.668;2023-07-20T10:43:08;26.20;74.30
2389;DHT22;1205;47.984;7.668;2023-07-20T10:45:50;26.60;74.20
2389;DHT22;1205;47.984;7.668;2023-07-20T10:48:23;26.70;74.50
2389;DHT22;1205;47.984;7.668;2023-07-20T10:51:11;26.90;74.00
2389;DHT22;1205;47.984;7.668;2023-07-20T10:53:39;26.70;74.40
2389;DHT22;1205;47.984;7.668;2023-07-20T10:56:19;26.60;75.10
2389;DHT22;1205;47.984;7.668;2023-07-20T10:58:44;26.80;74.40
2389;DHT22;1205;47.984;7.668;2023-07-20T11:01:14;26.80;74.10
2389;DHT22;1205;47.984;7.668;2023-07-20T11:03:41;26.60;74.30
2389;DHT22;1205;47.984;7.668;2023-07-20T11:09:03;26.60;74.10
2389;DHT22;1205;47.984;7.668;2023-07-20T11:11:30;26.50;74.30
2389;DHT22;1205;47.984;7.668;2023-07-20T11:14:01;26.40;74.20
2389;DHT22;1205;47.984;7.668;2023-07-20T11:21:45;26.40;73.80
2389;DHT22;1205;47.984;7.668;2023-07-20T11:24:11;26.30;72.90
2389;DHT22;1205;47.984;7.668;2023-07-20T11:26:54;26.30;72.50
2389;DHT22;1205;47.984;7.668;2023-07-20T11:29:21;26.10;73.30
2389;DHT22;1205;47.984;7.668;2023-07-20T11:31:48;26.10;73.30
2389;DHT22;1205;47.984;7.668;2023-07-20T11:34:20;26.30;72.10
2389;DHT22;1205;47.984;7.668;2023-07-20T11:36:47;26.30;72.70
2389;DHT22;1205;47.984;7.668;2023-07-20T11:39:14;26.30;72.10
2389;DHT22;1205;47.984;7.668;2023-07-20T11:41:45;26.30;72.00
2389;DHT22;1205;47.984;7.668;2023-07-20T11:44:11;26.40;71.70
2389;DHT22;1205;47.984;7.668;2023-07-20T11:46:39;26.50;69.80
2389;DHT22;1205;47.984;7.668;2023-07-20T11:49:05;26.70;71.40
2389;DHT22;1205;47.984;7.668;2023-07-20T11:51:32;26.70;71.20
2389;DHT22;1205;47.984;7.668;2023-07-20T11:53:58;27.00;71.40
2389;DHT22;1205;47.984;7.668;2023-07-20T11:56:25;26.90;70.20
2389;DHT22;1205;47.984;7.668;2023-07-20T11:58:54;27.00;69.60
2389;DHT22;1205;47.984;7.668;2023-07-20T12:01:20;27.10;71.00
2389;DHT22;1205;47.984;7.668;2023-07-20T12:03:47;27.40;72.80
2389;DHT22;1205;47.984;7.668;2023-07-20T12:06:13;27.60;70.30
2389;DHT22;1205;47.984;7.668;2023-07-20T12:08:42;27.60;69.40
2389;DHT22;1205;47.984;7.668;2023-07-20T12:11:08;27.50;69.60
2389;DHT22;1205;47.984;7.668;2023-07-20T12:13:43;27.60;70.50
2389;DHT22;1205;47.984;7.668;2023-07-20T12:16:14;27.30;70.50
2389;DHT22;1205;47.984;7.668;2023-07-20T12:18:41;27.40;70.80
2389;DHT22;1205;47.984;7.668;2023-07-20T12:21:07;27.50;71.50
2389;DHT22;1205;47.984;7.668;2023-07-20T12:23:38;27.60;72.10
2389;DHT22;1205;47.984;7.668;2023-07-20T12:26:08;27.70;70.50
2389;DHT22;1205;47.984;7.668;2023-07-20T12:28:39;27.70;69.30
2389;DHT22;1205;47.984;7.668;2023-07-20T12:31:06;27.70;69.00
2389;DHT22;1205;47.984;7.668;2023-07-20T12:33:32;27.80;68.70
2389;DHT22;1205;47.984;7.668;2023-07-20T12:35:57;27.80;69.10
2389;DHT22;1205;47.984;7.668;2023-07-20T12:38:24;28.00;71.10
2389;DHT22;1205;47.984;7.668;2023-07-20T12:40:51;27.90;68.30
2389;DHT22;1205;47.984;7.668;2023-07-20T12:43:16;27.90;69.40
2389;DHT22;1205;47.984;7.668;2023-07-20T12:45:42;27.80;69.40
2389;DHT22;1205;47.984;7.668;2023-07-20T12:48:08;27.80;69.00
2389;DHT22;1205;47.984;7.668;2023-07-20T12:50:34;27.70;68.50
2389;DHT22;1205;47.984;7.668;2023-07-20T12:52:59;27.60;69.10
2389;DHT22;1205;47.984;7.668;2023-07-20T12:55:25;27.60;69.90
2389;DHT22;1205;47.984;7.668;2023-07-20T12:57:51;27.60;69.40
2389;DHT22;1205;47.984;7.668;2023-07-20T13:00:16;27.40;69.40
2389;DHT22;1205;47.984;7.668;2023-07-20T13:02:42;27.40;68.90
2389;DHT22;1205;47.984;7.668;2023-07-20T13:05:09;27.40;68.40
2389;DHT22;1205;47.984;7.668;2023-07-20T13:07:37;27.50;68.80
2389;DHT22;1205;47.984;7.668;2023-07-20T13:10:04;27.60;69.90
2389;DHT22;1205;47.984;7.668;2023-07-20T13:12:31;27.50;70.80
2389;DHT22;1205;47.984;7.668;2023-07-20T13:14:57;27.30;71.90
2389;DHT22;1205;47.984;7.668;2023-07-20T13:17:26;27.40;71.20
2389;DHT22;1205;47.984;7.668;2023-07-20T13:19:52;27.40;71.80
2389;DHT22;1205;47.984;7.668;2023-07-20T13:22:17;27.40;72.20
2389;DHT22;1205;47.984;7.668;2023-07-20T13:24:45;27.40;72.00
2389;DHT22;1205;47.984;7.668;2023-07-20T13:27:14;27.40;70.90
2389;DHT22;1205;47.984;7.668;2023-07-20T13:29:40;27.50;71.60
2389;DHT22;1205;47.984;7.668;2023-07-20T13:32:06;27.50;70.80
2389;DHT22;1205;47.984;7.668;2023-07-20T13:34:32;27.60;71.10
2389;DHT22;1205;47.984;7.668;2023-07-20T13:36:58;27.80;70.70
2389;DHT22;1205;47.984;7.668;2023-07-20T13:39:24;27.90;69.10
2389;DHT22;1205;47.984;7.668;2023-07-20T13:41:52;28.00;67.70
2389;DHT22;1205;47.984;7.668;2023-07-20T13:44:18;28.20;68.70
2389;DHT22;1205;47.984;7.668;2023-07-20T13:46:43;27.90;66.70
2389;DHT22;1205;47.984;7.668;2023-07-20T13:49:09;28.00;67.60
2389;DHT22;1205;47.984;7.668;2023-07-20T13:51:34;28.00;68.90
2389;DHT22;1205;47.984;7.668;2023-07-20T13:54:00;28.00;68.40
2389;DHT22;1205;47.984;7.668;2023-07-20T13:56:26;28.00;70.40
2389;DHT22;1205;47.984;7.668;2023-07-20T13:58:52;28.00;71.20
2389;DHT22;1205;47.984;7.668;2023-07-20T14:01:18;27.90;71.30
2389;DHT22;1205;47.984;7.668;2023-07-20T14:03:44;27.70;70.90
2389;DHT22;1205;47.984;7.668;2023-07-20T14:06:10;27.90;72.10
2389;DHT22;1205;47.984;7.668;2023-07-20T14:08:37;27.90;71.00
2389;DHT22;1205;47.984;7.668;2023-07-20T14:11:03;27.90;71.50
2389;DHT22;1205;47.984;7.668;2023-07-20T14:13:29;27.80;70.80
2389;DHT22;1205;47.984;7.668;2023-07-20T14:15:54;27.70;71.50
2389;DHT22;1205;47.984;7.668;2023-07-20T14:18:20;27.70;72.40
2389;DHT22;1205;47.984;7.668;2023-07-20T14:20:45;27.70;71.50
2389;DHT22;1205;47.984;7.668;2023-07-20T14:23:12;27.60;71.60
2389;DHT22;1205;47.984;7.668;2023-07-20T14:25:38;27.60;71.70
2389;DHT22;1205;47.984;7.668;2023-07-20T14:28:03;27.70;71.10
2389;DHT22;1205;47.984;7.668;2023-07-20T14:30:29;27.60;69.90
2389;DHT22;1205;47.984;7.668;2023-07-20T14:32:54;27.50;70.30
2389;DHT22;1205;47.984;7.668;2023-07-20T14:35:20;27.60;70.20
2389;DHT22;1205;47.984;7.668;2023-07-20T14:37:46;27.70;70.90
2389;DHT22;1205;47.984;7.668;2023-07-20T14:40:13;27.80;70.20
2389;DHT22;1205;47.984;7.668;2023-07-20T14:42:38;27.90;69.70
2389;DHT22;1205;47.984;7.668;2023-07-20T14:45:04;27.90;69.00
2389;DHT22;1205;47.984;7.668;2023-07-20T14:47:31;28.00;69.80
2389;DHT22;1205;47.984;7.668;2023-07-20T14:50:03;27.90;70.70
2389;DHT22;1205;47.984;7.668;2023-07-20T14:52:29;27.90;71.10
2389;DHT22;1205;47.984;7.668;2023-07-20T14:54:54;27.80;71.00
2389;DHT22;1205;47.984;7.668;2023-07-20T14:57:20;27.80;71.10
2389;DHT22;1205;47.984;7.668;2023-07-20T14:59:49;27.70;71.00
2389;DHT22;1205;47.984;7.668;2023-07-20T15:02:14;27.80;70.60
2389;DHT22;1205;47.984;7.668;2023-07-20T15:04:47;27.80;70.90
2389;DHT22;1205;47.984;7.668;2023-07-20T15:07:13;27.80;71.50
2389;DHT22;1205;47.984;7.668;2023-07-20T15:09:38;28.00;70.40
2389;DHT22;1205;47.984;7.668;2023-07-20T15:12:05;28.00;71.00
2389;DHT22;1205;47.984;7.668;2023-07-20T15:14:31;27.90;70.70
2389;DHT22;1205;47.984;7.668;2023-07-20T15:16:56;27.70;70.60
2389;DHT22;1205;47.984;7.668;2023-07-20T15:19:22;27.90;71.20
2389;DHT22;1205;47.984;7.668;2023-07-20T15:21:47;27.70;70.80
2389;DHT22;1205;47.984;7.668;2023-07-20T15:24:13;27.70;71.20
2389;DHT22;1205;47.984;7.668;2023-07-20T15:26:39;27.80;70.90
2389;DHT22;1205;47.984;7.668;2023-07-20T15:29:05;27.80;71.00
2389;DHT22;1205;47.984;7.668;2023-07-20T15:31:30;27.90;71.40
2389;DHT22;1205;47.984;7.668;2023-07-20T15:33:56;27.70;70.00
2389;DHT22;1205;47.984;7.668;2023-07-20T15:36:21;27.80;71.30
2389;DHT22;1205;47.984;7.668;2023-07-20T15:38:47;27.90;71.40
2389;DHT22;1205;47.984;7.668;2023-07-20T15:41:12;27.90;70.90
2389;DHT22;1205;47.984;7.668;2023-07-20T15:43:39;28.10;70.70
2389;DHT22;1205;47.984;7.668;2023-07-20T15:48:46;28.10;71.10
2389;DHT22;1205;47.984;7.668;2023-07-20T15:51:12;28.00;70.80
2389;DHT22;1205;47.984;7.668;2023-07-20T15:53:37;27.90;70.30
2389;DHT22;1205;47.984;7.668;2023-07-20T15:56:03;27.90;70.70
2389;DHT22;1205;47.984;7.668;2023-07-20T15:58:29;27.90;70.60
2389;DHT22;1205;47.984;7.668;2023-07-20T16:00:55;27.90;70.70
2389;DHT22;1205;47.984;7.668;2023-07-20T16:03:22;27.80;71.10
2389;DHT22;1205;47.984;7.668;2023-07-20T16:05:50;27.80;70.80
2389;DHT22;1205;47.984;7.668;2023-07-20T16:08:15;27.70;70.50
2389;DHT22;1205;47.984;7.668;2023-07-20T16:10:42;27.80;70.90
2389;DHT22;1205;47.984;7.668;2023-07-20T16:13:08;27.80;71.30
2389;DHT22;1205;47.984;7.668;2023-07-20T16:15:34;27.90;70.40
2389;DHT22;1205;47.984;7.668;2023-07-20T16:17:59;27.70;70.60
2389;DHT22;1205;47.984;7.668;2023-07-20T16:20:25;27.80;70.60
2389;DHT22;1205;47.984;7.668;2023-07-20T16:22:52;27.80;70.60